sensor_id;sensor_type;location;lat;lon;timestamp;pressure;altitude;pressure_sealevel;temperature;humidity
29505;BME280;16452;54.174;12.092;2022-10-16T00:00:56;100735.50;;;16.90;100.00
29505;BME280;16452;54.174;12.092;2022-10-16T00:03:22;100744.00;;;16.82;100.00
29505;BME280;16452;54.174;12.092;2022-10-16T00:05:48;100741.84;;;16.87;100.00
29505;BME280;16452;54.174;12.092;2022-10-16T00:08:14;100748.28;;;16.72;100.00
29505;BME280;16452;54.174;12.092;2022-10-16T00:10:40;100761.13;;;16.76;100.00
29505;BME280;16452;54.174;12.092;2022-10-16T00:13:06;100763.28;;;16.71;100.00
29505;BME280;16452;54.174;12.092;2022-10-16T00:15:36;100764.09;;;16.72;100.00
29505;BME280;16452;54.174;12.092;2022-10-16T00:18:04;100766.75;;;16.83;100.00
29505;BME280;16452;54.174;12.092;2022-10-16T00:20:30;100768.88;;;16.78;100.00
29505;BME280;16452;54.174;12.092;2022-10-16T00:22:59;100766.25;;;16.78;100.00
29505;BME280;16452;54.174;12.092;2022-10-16T00:25:24;100766.72;;;16.72;100.00
29505;BME280;16452;54.174;12.092;2022-10-16T00:27:50;100774.13;;;16.78;100.00
29505;BME280;16452;54.174;12.092;2022-10-16T00:30:16;100777.22;;;16.72;100.00
29505;BME280;16452;54.174;12.092;2022-10-16T00:32:41;100771.28;;;16.81;100.00
29505;BME280;16452;54.174;12.092;2022-10-16T00:35:07;100772.69;;;16.74;100.00
29505;BME280;16452;54.174;12.092;2022-10-16T00:37:33;100785.00;;;16.62;100.00
29505;BME280;16452;54.174;12.092;2022-10-16T00:39:59;100792.91;;;16.62;100.00
29505;BME280;16452;54.174;12.092;2022-10-16T00:42:24;100794.34;;;16.66;100.00
29505;BME280;16452;54.174;12.092;2022-10-16T00:44:56;100793.63;;;16.64;100.00
29505;BME280;16452;54.174;12.092;2022-10-16T00:47:43;100788.84;;;16.69;100.00
29505;BME280;16452;54.174;12.092;2022-10-16T00:50:29;100790.28;;;16.62;100.00
29505;BME280;16452;54.174;12.092;2022-10-16T00:52:56;100789.44;;;16.73;100.00
29505;BME280;16452;54.174;12.092;2022-10-16T00:55:24;100796.06;;;16.55;100.00
29505;BME280;16452;54.174;12.092;2022-10-16T00:57:50;100795.38;;;16.53;100.00
29505;BME280;16452;54.174;12.092;2022-10-16T01:00:22;100795.97;;;16.56;100.00
29505;BME280;16452;54.174;12.092;2022-10-16T01:03:33;100794.22;;;16.68;100.00
29505;BME280;16452;54.174;12.092;2022-10-16T01:06:43;100797.81;;;16.67;100.00
29505;BME280;16452;54.174;12.092;2022-10-16T01:09:14;100799.00;;;16.63;100.00
29505;BME280;16452;54.174;12.092;2022-10-16T01:12:08;100798.59;;;16.56;100.00
29505;BME280;16452;54.174;12.092;2022-10-16T01:14:48;100797.66;;;16.57;100.00
29505;BME280;16452;54.174;12.092;2022-10-16T01:20:29;100809.69;;;16.37;100.00
29505;BME280;16452;54.174;12.092;2022-10-16T01:29:20;100806.09;;;16.38;100.00
29505;BME280;16452;54.174;12.092;2022-10-16T01:31:50;100812.19;;;16.39;100.00
29505;BME280;16452;54.174;12.092;2022-10-16T01:34:37;100817.72;;;16.47;100.00
29505;BME280;16452;54.174;12.092;2022-10-16T01:37:16;100816.25;;;16.32;100.00
29505;BME280;16452;54.174;12.092;2022-10-16T01:39:46;100825.88;;;16.20;100.00
29505;BME280;16452;54.174;12.092;2022-10-16T01:42:21;100836.72;;;16.39;100.00
29505;BME280;16452;54.174;12.092;2022-10-16T01:44:48;100835.03;;;16.38;100.00
29505;BME280;16452;54.174;12.092;2022-10-16T01:47:17;100833.78;;;16.31;100.00
29505;BME280;16452;54.174;12.092;2022-10-16T01:49:45;100834.31;;;16.36;100.00
29505;BME280;16452;54.174;12.092;2022-10-16T01:52:15;100823.50;;;16.17;100.00
29505;BME280;16452;54.174;12.092;2022-10-16T01:54:46;100828.84;;;16.16;100.00
29505;BME280;16452;54.174;12.092;2022-10-16T01:57:13;100832.31;;;16.16;100.00
29505;BME280;16452;54.174;12.092;2022-10-16T01:59:47;100839.88;;;16.21;100.00
29505;BME280;16452;54.174;12.092;2022-10-16T02:02:15;100841.06;;;16.17;100.00
29505;BME280;16452;54.174;12.092;2022-10-16T02:07:49;100841.50;;;16.11;100.00
29505;BME280;16452;54.174;12.092;2022-10-16T02:10:16;100836.75;;;16.16;100.00
29505;BME280;16452;54.174;12.092;2022-10-16T02:12:50;100831.88;;;16.22;100.00
29505;BME280;16452;54.174;12.092;2022-10-16T02:15:19;100831.47;;;16.16;100.00
29505;BME280;16452;54.174;12.092;2022-10-16T02:17:45;100838.31;;;16.18;100.00
29505;BME280;16452;54.174;12.092;2022-10-16T02:20:11;100840.50;;;16.24;100.00
29505;BME280;16452;54.174;12.092;2022-10-16T02:22:46;100847.53;;;16.24;100.00
29505;BME280;16452;54.174;12.092;2022-10-16T02:25:30;100845.63;;;16.26;100.00
29505;BME280;16452;54.174;12.092;2022-10-16T02:28:08;100842.88;;;16.27;100.00
29505;BME280;16452;54.174;12.092;2022-10-16T02:30:42;100853.69;;;16.12;100.00
29505;BME280;16452;54.174;12.092;2022-10-16T02:33:11;100846.53;;;16.14;100.00
29505;BME280;16452;54.174;12.092;2022-10-16T02:35:40;100846.22;;;16.18;100.00
29505;BME280;16452;54.174;12.092;2022-10-16T02:38:08;100854.50;;;16.01;100.00
29505;BME280;16452;54.174;12.092;2022-10-16T02:40:35;100853.38;;;15.92;100.00
29505;BME280;16452;54.174;12.092;2022-10-16T02:43:03;100853.03;;;15.97;100.00
29505;BME280;16452;54.174;12.092;2022-10-16T02:45:30;100854.25;;;16.04;100.00
29505;BME280;16452;54.174;12.092;2022-10-16T02:47:56;100845.94;;;15.86;100.00
29505;BME280;16452;54.174;12.092;2022-10-16T02:50:21;100853.59;;;15.89;100.00
29505;BME280;16452;54.174;12.092;2022-10-16T02:52:48;100851.22;;;15.97;100.00
29505;BME280;16452;54.174;12.092;2022-10-16T02:55:17;100850.53;;;15.95;100.00
29505;BME280;16452;54.174;12.092;2022-10-16T02:57:42;100849.34;;;15.99;100.00
29505;BME280;16452;54.174;12.092;2022-10-16T03:00:12;100854.22;;;15.93;100.00
29505;BME280;16452;54.174;12.092;2022-10-16T03:02:40;100850.19;;;16.00;100.00
29505;BME280;16452;54.174;12.092;2022-10-16T03:05:06;100850.53;;;15.95;100.00
29505;BME280;16452;54.174;12.092;2022-10-16T03:07:32;100858.31;;;15.84;100.00
29505;BME280;16452;54.174;12.092;2022-10-16T03:09:57;100851.72;;;15.79;100.00
29505;BME280;16452;54.174;12.092;2022-10-16T03:12:28;100848.44;;;15.88;100.00
29505;BME280;16452;54.174;12.092;2022-10-16T03:14:55;100849.75;;;15.82;100.00
29505;BME280;16452;54.174;12.092;2022-10-16T03:17:23;100862.44;;;15.88;100.00
29505;BME280;16452;54.174;12.092;2022-10-16T03:19:49;100861.28;;;15.80;100.00
29505;BME280;16452;54.174;12.092;2022-10-16T03:22:14;100860.66;;;15.89;100.00
29505;BME280;16452;54.174;12.092;2022-10-16T03:24:40;100853.38;;;15.92;100.00
29505;BME280;16452;54.174;12.092;2022-10-16T03:27:06;100855.38;;;15.89;100.00
29505;BME280;16452;54.174;12.092;2022-10-16T03:29:32;100858.72;;;15.91;100.00
29505;BME280;16452;54.174;12.092;2022-10-16T03:31:59;100863.56;;;15.84;100.00
29505;BME280;16452;54.174;12.092;2022-10-16T03:34:24;100867.28;;;15.82;100.00
29505;BME280;16452;54.174;12.092;2022-10-16T03:36:51;100864.38;;;15.74;100.00
29505;BME280;16452;54.174;12.092;2022-10-16T03:39:17;100866.16;;;15.73;100.00
29505;BME280;16452;54.174;12.092;2022-10-16T03:41:43;100861.69;;;15.86;100.00
29505;BME280;16452;54.174;12.092;2022-10-16T03:44:08;100865.59;;;15.81;100.00
29505;BME280;16452;54.174;12.092;2022-10-16T03:46:34;100867.44;;;15.68;100.00
29505;BME280;16452;54.174;12.092;2022-10-16T03:49:00;100867.50;;;15.55;100.00
29505;BME280;16452;54.174;12.092;2022-10-16T03:51:26;100871.63;;;15.70;100.00
29505;BME280;16452;54.174;12.092;2022-10-16T03:53:51;100874.88;;;15.74;100.00
29505;BME280;16452;54.174;12.092;2022-10-16T03:56:20;100866.16;;;15.73;100.00
29505;BME280;16452;54.174;12.092;2022-10-16T03:58:46;100864.72;;;15.56;100.00
29505;BME280;16452;54.174;12.092;2022-10-16T04:01:11;100861.91;;;15.59;100.00
29505;BME280;16452;54.174;12.092;2022-10-16T04:03:37;100874.25;;;15.70;100.00
29505;BME280;16452;54.174;12.092;2022-10-16T04:06:03;100869.50;;;15.75;100.00
29505;BME280;16452;54.174;12.092;2022-10-16T04:08:29;100867.81;;;15.74;100.00
29505;BME280;16452;54.174;12.092;2022-10-16T04:10:54;100870.22;;;15.53;100.00
29505;BME280;16452;54.174;12.092;2022-10-16T04:13:20;100877.88;;;15.56;100.00
29505;BME280;16452;54.174;12.092;2022-10-16T04:15:46;100879.97;;;15.39;100.00
29505;BME280;16452;54.174;12.092;2022-10-16T04:18:12;100885.44;;;15.36;100.00
29505;BME280;16452;54.174;12.092;2022-10-16T04:20:38;100892.75;;;15.43;100.00
29505;BME280;16452;54.174;12.092;2022-10-16T04:23:04;100890.97;;;15.44;100.00
29505;BME280;16452;54.174;12.092;2022-10-16T04:25:30;100892.56;;;15.59;100.00
29505;BME280;16452;54.174;12.092;2022-10-16T04:27:56;100894.16;;;15.49;100.00
29505;BME280;16452;54.174;12.092;2022-10-16T04:30:22;100895.94;;;15.36;100.00
29505;BME280;16452;54.174;12.092;2022-10-16T04:32:49;100896.97;;;15.46;100.00
29505;BME280;16452;54.174;12.092;2022-10-16T04:35:17;100895.94;;;15.48;100.00
29505;BME280;16452;54.174;12.092;2022-10-16T04:37:43;100899.81;;;15.55;100.00
29505;BME280;16452;54.174;12.092;2022-10-16T04:40:09;100893.09;;;15.39;100.00
29505;BME280;16452;54.174;12.092;2022-10-16T04:42:34;100892.38;;;15.37;100.00
29505;BME280;16452;54.174;12.092;2022-10-16T04:45:00;100900.69;;;15.31;100.00
29505;BME280;16452;54.174;12.092;2022-10-16T04:47:26;100899.94;;;15.29;100.00
29505;BME280;16452;54.174;12.092;2022-10-16T04:49:52;100900.47;;;15.21;100.00
29505;BME280;16452;54.174;12.092;2022-10-16T04:52:17;100895.72;;;15.26;100.00
29505;BME280;16452;54.174;12.092;2022-10-16T04:54:44;100900.13;;;15.38;100.00
29505;BME280;16452;54.174;12.092;2022-10-16T04:57:11;100904.75;;;15.35;100.00
29505;BME280;16452;54.174;12.092;2022-10-16T04:59:36;100904.03;;;15.20;100.00
29505;BME280;16452;54.174;12.092;2022-10-16T05:02:02;100901.22;;;15.23;100.00
29505;BME280;16452;54.174;12.092;2022-10-16T05:04:28;100908.13;;;15.24;100.00
29505;BME280;16452;54.174;12.092;2022-10-16T05:06:54;100900.88;;;15.15;100.00
29505;BME280;16452;54.174;12.092;2022-10-16T05:09:20;100898.25;;;15.15;100.00
29505;BME280;16452;54.174;12.092;2022-10-16T05:11:46;100907.72;;;15.17;100.00
29505;BME280;16452;54.174;12.092;2022-10-16T05:14:11;100912.44;;;15.25;100.00
29505;BME280;16452;54.174;12.092;2022-10-16T05:16:37;100911.19;;;15.18;100.00
29505;BME280;16452;54.174;12.092;2022-10-16T05:19:03;100920.94;;;15.16;100.00
29505;BME280;16452;54.174;12.092;2022-10-16T05:21:29;100921.59;;;15.07;100.00
29505;BME280;16452;54.174;12.092;2022-10-16T05:23:54;100928.81;;;15.03;100.00
29505;BME280;16452;54.174;12.092;2022-10-16T05:26:20;100923.28;;;15.08;100.00
29505;BME280;16452;54.174;12.092;2022-10-16T05:28:46;100929.56;;;15.05;100.00
29505;BME280;16452;54.174;12.092;2022-10-16T05:31:12;100937.19;;;15.08;100.00
29505;BME280;16452;54.174;12.092;2022-10-16T05:33:38;100933.63;;;14.97;100.00
29505;BME280;16452;54.174;12.092;2022-10-16T05:36:09;100943.41;;;14.95;100.00
29505;BME280;16452;54.174;12.092;2022-10-16T05:38:36;100952.44;;;14.91;100.00
29505;BME280;16452;54.174;12.092;2022-10-16T05:41:04;100958.09;;;14.85;100.00
29505;BME280;16452;54.174;12.092;2022-10-16T05:43:31;100958.41;;;14.93;100.00
29505;BME280;16452;54.174;12.092;2022-10-16T05:46:03;100957.88;;;15.00;100.00
29505;BME280;16452;54.174;12.092;2022-10-16T05:48:30;100958.31;;;14.94;100.00
29505;BME280;16452;54.174;12.092;2022-10-16T05:51:10;100950.22;;;14.85;100.00
29505;BME280;16452;54.174;12.092;2022-10-16T05:53:38;100950.50;;;14.80;100.00
29505;BME280;16452;54.174;12.092;2022-10-16T05:56:06;100954.94;;;14.92;100.00
29505;BME280;16452;54.174;12.092;2022-10-16T05:58:35;100969.63;;;14.95;100.00
29505;BME280;16452;54.174;12.092;2022-10-16T06:01:16;100969.19;;;14.88;100.00
29505;BME280;16452;54.174;12.092;2022-10-16T06:03:42;100984.63;;;14.93;100.00
29505;BME280;16452;54.174;12.092;2022-10-16T06:06:20;100979.88;;;14.85;100.00
29505;BME280;16452;54.174;12.092;2022-10-16T06:08:47;100980.13;;;14.95;100.00
29505;BME280;16452;54.174;12.092;2022-10-16T06:11:19;100983.69;;;14.94;100.00
29505;BME280;16452;54.174;12.092;2022-10-16T06:13:54;100987.28;;;15.05;100.00
29505;BME280;16452;54.174;12.092;2022-10-16T06:16:22;100993.34;;;14.93;100.00
29505;BME280;16452;54.174;12.092;2022-10-16T06:18:50;101002.56;;;14.86;100.00
29505;BME280;16452;54.174;12.092;2022-10-16T06:21:20;101006.81;;;15.01;100.00
29505;BME280;16452;54.174;12.092;2022-10-16T06:23:47;101012.25;;;14.98;100.00
29505;BME280;16452;54.174;12.092;2022-10-16T06:26:16;101015.94;;;14.96;100.00
29505;BME280;16452;54.174;12.092;2022-10-16T06:28:43;101013.03;;;14.86;100.00
29505;BME280;16452;54.174;12.092;2022-10-16T06:31:11;101027.13;;;14.98;100.00
29505;BME280;16452;54.174;12.092;2022-10-16T06:33:38;101029.31;;;14.91;100.00
29505;BME280;16452;54.174;12.092;2022-10-16T06:36:13;101028.94;;;15.10;100.00
29505;BME280;16452;54.174;12.092;2022-10-16T06:38:40;101032.50;;;14.96;100.00
29505;BME280;16452;54.174;12.092;2022-10-16T06:41:07;101032.81;;;15.04;100.00
29505;BME280;16452;54.174;12.092;2022-10-16T06:43:33;101024.41;;;14.99;100.00
29505;BME280;16452;54.174;12.092;2022-10-16T06:46:02;101024.31;;;15.01;100.00
29505;BME280;16452;54.174;12.092;2022-10-16T06:48:30;101022.44;;;15.15;100.00
29505;BME280;16452;54.174;12.092;2022-10-16T06:51:00;101032.63;;;15.07;100.00
29505;BME280;16452;54.174;12.092;2022-10-16T06:53:29;101028.31;;;15.06;100.00
29505;BME280;16452;54.174;12.092;2022-10-16T06:55:55;101027.25;;;15.09;100.00
29505;BME280;16452;54.174;12.092;2022-10-16T06:58:21;101028.34;;;15.32;100.00
29505;BME280;16452;54.174;12.092;2022-10-16T07:00:47;101034.31;;;15.21;100.00
29505;BME280;16452;54.174;12.092;2022-10-16T07:03:13;101038.34;;;15.39;100.00
29505;BME280;16452;54.174;12.092;2022-10-16T07:05:42;101040.63;;;15.44;100.00
29505;BME280;16452;54.174;12.092;2022-10-16T07:08:09;101042.03;;;15.37;100.00
29505;BME280;16452;54.174;12.092;2022-10-16T07:10:35;101038.84;;;15.44;100.00
29505;BME280;16452;54.174;12.092;2022-10-16T07:13:01;101048.78;;;15.53;100.00
29505;BME280;16452;54.174;12.092;2022-10-16T07:15:28;101055.19;;;15.62;100.00
29505;BME280;16452;54.174;12.092;2022-10-16T07:17:54;101063.34;;;15.45;100.00
29505;BME280;16452;54.174;12.092;2022-10-16T07:20:19;101062.63;;;15.55;100.00
29505;BME280;16452;54.174;12.092;2022-10-16T07:22:45;101065.97;;;15.45;100.00
29505;BME280;16452;54.174;12.092;2022-10-16T07:25:11;101062.22;;;15.74;100.00
29505;BME280;16452;54.174;12.092;2022-10-16T07:27:37;101062.31;;;15.85;99.34
29505;BME280;16452;54.174;12.092;2022-10-16T07:30:04;101061.34;;;16.12;98.73
29505;BME280;16452;54.174;12.092;2022-10-16T07:32:31;101069.16;;;16.37;97.34
29505;BME280;16452;54.174;12.092;2022-10-16T07:34:57;101063.69;;;16.40;96.40
29505;BME280;16452;54.174;12.092;2022-10-16T07:37:23;101070.38;;;16.69;95.34
29505;BME280;16452;54.174;12.092;2022-10-16T07:39:48;101059.34;;;16.88;94.49
29505;BME280;16452;54.174;12.092;2022-10-16T07:42:14;101060.41;;;16.86;92.63
29505;BME280;16452;54.174;12.092;2022-10-16T07:44:40;101071.59;;;17.00;91.00
29505;BME280;16452;54.174;12.092;2022-10-16T07:47:06;101064.06;;;17.07;90.60
29505;BME280;16452;54.174;12.092;2022-10-16T07:49:32;101077.59;;;17.13;90.09
29505;BME280;16452;54.174;12.092;2022-10-16T07:51:58;101073.00;;;17.28;89.12
29505;BME280;16452;54.174;12.092;2022-10-16T07:54:24;101073.13;;;17.38;87.49
29505;BME280;16452;54.174;12.092;2022-10-16T07:56:49;101080.59;;;17.55;87.66
29505;BME280;16452;54.174;12.092;2022-10-16T07:59:15;101073.59;;;17.78;86.54
29505;BME280;16452;54.174;12.092;2022-10-16T08:01:41;101074.81;;;17.96;85.86
29505;BME280;16452;54.174;12.092;2022-10-16T08:04:10;101080.34;;;18.15;84.86
29505;BME280;16452;54.174;12.092;2022-10-16T08:06:40;101078.63;;;18.36;84.04
29505;BME280;16452;54.174;12.092;2022-10-16T08:09:07;101072.28;;;18.28;83.73
29505;BME280;16452;54.174;12.092;2022-10-16T08:11:33;101067.03;;;18.17;83.64
29505;BME280;16452;54.174;12.092;2022-10-16T08:13:58;101072.06;;;18.20;83.23
29505;BME280;16452;54.174;12.092;2022-10-16T08:16:24;101063.91;;;18.23;84.04
29505;BME280;16452;54.174;12.092;2022-10-16T08:18:50;101068.06;;;18.47;84.13
29505;BME280;16452;54.174;12.092;2022-10-16T08:21:20;101072.00;;;18.53;83.21
29505;BME280;16452;54.174;12.092;2022-10-16T08:23:46;101078.03;;;18.55;83.20
29505;BME280;16452;54.174;12.092;2022-10-16T08:26:12;101082.34;;;18.56;82.34
29505;BME280;16452;54.174;12.092;2022-10-16T08:28:39;101085.44;;;18.50;83.49
29505;BME280;16452;54.174;12.092;2022-10-16T08:31:14;101092.03;;;18.67;83.44
29505;BME280;16452;54.174;12.092;2022-10-16T08:33:42;101088.44;;;18.68;83.79
29505;BME280;16452;54.174;12.092;2022-10-16T08:36:10;101087.97;;;18.63;82.49
29505;BME280;16452;54.174;12.092;2022-10-16T08:38:37;101081.25;;;18.59;83.00
29505;BME280;16452;54.174;12.092;2022-10-16T08:47:20;101090.97;;;18.36;82.93
29505;BME280;16452;54.174;12.092;2022-10-16T08:49:58;101107.16;;;18.42;84.33
29505;BME280;16452;54.174;12.092;2022-10-16T08:52:32;101110.16;;;18.49;83.79
29505;BME280;16452;54.174;12.092;2022-10-16T08:55:04;101108.97;;;18.31;84.29
29505;BME280;16452;54.174;12.092;2022-10-16T08:57:30;101106.59;;;18.28;83.90
29505;BME280;16452;54.174;12.092;2022-10-16T09:00:05;101105.84;;;18.37;83.89
29505;BME280;16452;54.174;12.092;2022-10-16T09:12:21;101120.72;;;18.27;85.49
29505;BME280;16452;54.174;12.092;2022-10-16T09:17:59;101119.41;;;18.10;86.63
29505;BME280;16452;54.174;12.092;2022-10-16T09:21:00;101113.19;;;18.11;86.81
29505;BME280;16452;54.174;12.092;2022-10-16T09:23:33;101111.25;;;18.02;87.51
29505;BME280;16452;54.174;12.092;2022-10-16T09:26:00;101114.63;;;18.04;87.06
29505;BME280;16452;54.174;12.092;2022-10-16T09:28:26;101116.31;;;18.16;86.87
29505;BME280;16452;54.174;12.092;2022-10-16T09:30:52;101114.97;;;18.22;87.89
29505;BME280;16452;54.174;12.092;2022-10-16T09:33:22;101124.31;;;18.26;87.79
29505;BME280;16452;54.174;12.092;2022-10-16T09:35:54;101126.72;;;18.40;87.04
29505;BME280;16452;54.174;12.092;2022-10-16T09:38:30;101114.69;;;18.47;87.09
29505;BME280;16452;54.174;12.092;2022-10-16T09:40:58;101115.31;;;18.51;86.05
29505;BME280;16452;54.174;12.092;2022-10-16T09:43:41;101108.44;;;18.70;85.42
29505;BME280;16452;54.174;12.092;2022-10-16T09:48:49;101113.63;;;18.72;85.89
29505;BME280;16452;54.174;12.092;2022-10-16T09:51:33;101117.72;;;18.65;84.80
29505;BME280;16452;54.174;12.092;2022-10-16T09:56:36;101111.06;;;18.93;84.08
29505;BME280;16452;54.174;12.092;2022-10-16T10:01:51;101110.00;;;19.16;83.60
29505;BME280;16452;54.174;12.092;2022-10-16T10:04:19;101114.13;;;19.09;82.55
29505;BME280;16452;54.174;12.092;2022-10-16T10:06:48;101122.72;;;19.11;83.01
29505;BME280;16452;54.174;12.092;2022-10-16T10:12:00;101141.78;;;19.25;82.89
29505;BME280;16452;54.174;12.092;2022-10-16T10:14:48;101133.25;;;19.22;81.40
29505;BME280;16452;54.174;12.092;2022-10-16T10:19:59;101135.09;;;19.21;82.04
29505;BME280;16452;54.174;12.092;2022-10-16T10:22:43;101133.13;;;19.23;82.02
29505;BME280;16452;54.174;12.092;2022-10-16T10:31:06;101140.25;;;19.44;81.48
29505;BME280;16452;54.174;12.092;2022-10-16T10:34:07;101141.34;;;19.41;80.61
29505;BME280;16452;54.174;12.092;2022-10-16T10:36:40;101135.81;;;19.44;81.54
29505;BME280;16452;54.174;12.092;2022-10-16T10:44:41;101142.53;;;19.48;78.99
29505;BME280;16452;54.174;12.092;2022-10-16T10:47:51;101148.09;;;19.66;79.32
29505;BME280;16452;54.174;12.092;2022-10-16T10:50:32;101145.69;;;19.63;78.72
29505;BME280;16452;54.174;12.092;2022-10-16T10:56:00;101152.59;;;19.75;78.77
29505;BME280;16452;54.174;12.092;2022-10-16T11:02:09;101156.53;;;19.81;78.42
29505;BME280;16452;54.174;12.092;2022-10-16T11:08:18;101162.72;;;19.70;79.72
29505;BME280;16452;54.174;12.092;2022-10-16T11:10:54;101159.44;;;19.78;79.50
29505;BME280;16452;54.174;12.092;2022-10-16T11:16:15;101158.13;;;19.93;78.00
29505;BME280;16452;54.174;12.092;2022-10-16T11:19:13;101160.16;;;20.00;78.94
29505;BME280;16452;54.174;12.092;2022-10-16T11:21:53;101163.06;;;19.97;77.36
29505;BME280;16452;54.174;12.092;2022-10-16T11:27:10;101173.81;;;20.05;77.08
29505;BME280;16452;54.174;12.092;2022-10-16T11:29:52;101167.16;;;20.11;78.09
29505;BME280;16452;54.174;12.092;2022-10-16T11:32:39;101161.63;;;20.14;76.87
29505;BME280;16452;54.174;12.092;2022-10-16T11:35:22;101164.94;;;20.16;76.95
29505;BME280;16452;54.174;12.092;2022-10-16T11:37:50;101173.69;;;20.07;76.58
29505;BME280;16452;54.174;12.092;2022-10-16T11:40:31;101165.09;;;20.15;74.78
29505;BME280;16452;54.174;12.092;2022-10-16T11:43:37;101174.31;;;20.20;74.57
29505;BME280;16452;54.174;12.092;2022-10-16T11:46:20;101165.13;;;20.24;76.00
29505;BME280;16452;54.174;12.092;2022-10-16T11:49:00;101164.59;;;20.21;75.75
29505;BME280;16452;54.174;12.092;2022-10-16T11:51:38;101168.88;;;20.22;74.84
29505;BME280;16452;54.174;12.092;2022-10-16T11:56:57;101172.81;;;20.27;74.40
29505;BME280;16452;54.174;12.092;2022-10-16T11:59:52;101179.09;;;20.26;74.04
29505;BME280;16452;54.174;12.092;2022-10-16T12:03:03;101187.41;;;20.42;73.58
29505;BME280;16452;54.174;12.092;2022-10-16T12:05:52;101182.13;;;20.42;69.77
29505;BME280;16452;54.174;12.092;2022-10-16T12:08:21;101182.38;;;20.39;68.17
29505;BME280;16452;54.174;12.092;2022-10-16T12:10:48;101184.88;;;20.41;68.24
29505;BME280;16452;54.174;12.092;2022-10-16T12:13:39;101180.63;;;20.49;69.71
29505;BME280;16452;54.174;12.092;2022-10-16T12:18:42;101181.06;;;20.55;68.88
29505;BME280;16452;54.174;12.092;2022-10-16T12:21:08;101183.69;;;20.55;70.65
29505;BME280;16452;54.174;12.092;2022-10-16T12:26:28;101189.56;;;20.58;65.84
29505;BME280;16452;54.174;12.092;2022-10-16T12:28:55;101201.94;;;20.58;67.61
29505;BME280;16452;54.174;12.092;2022-10-16T12:31:23;101202.34;;;20.53;68.07
29505;BME280;16452;54.174;12.092;2022-10-16T12:33:58;101208.50;;;20.54;67.94
29505;BME280;16452;54.174;12.092;2022-10-16T12:36:33;101220.66;;;20.66;68.65
29505;BME280;16452;54.174;12.092;2022-10-16T12:39:00;101231.25;;;20.66;67.24
29505;BME280;16452;54.174;12.092;2022-10-16T12:41:32;101234.06;;;20.74;67.16
29505;BME280;16452;54.174;12.092;2022-10-16T12:44:00;101231.94;;;20.68;67.25
29505;BME280;16452;54.174;12.092;2022-10-16T12:51:53;101252.78;;;20.31;67.60
29505;BME280;16452;54.174;12.092;2022-10-16T12:54:37;101240.75;;;20.38;64.99
29505;BME280;16452;54.174;12.092;2022-10-16T12:57:24;101264.16;;;20.42;64.68
29505;BME280;16452;54.174;12.092;2022-10-16T13:12:25;101282.56;;;20.44;66.20
29505;BME280;16452;54.174;12.092;2022-10-16T13:23:32;101287.09;;;20.32;67.12
29505;BME280;16452;54.174;12.092;2022-10-16T13:28:36;101292.56;;;20.20;66.98
29505;BME280;16452;54.174;12.092;2022-10-16T13:31:03;101306.69;;;20.09;67.32
29505;BME280;16452;54.174;12.092;2022-10-16T13:33:37;101310.25;;;20.19;67.01
29505;BME280;16452;54.174;12.092;2022-10-16T13:36:05;101308.56;;;20.18;67.51
29505;BME280;16452;54.174;12.092;2022-10-16T13:38:36;101307.03;;;20.04;68.39
29505;BME280;16452;54.174;12.092;2022-10-16T13:41:06;101317.06;;;20.01;68.61
29505;BME280;16452;54.174;12.092;2022-10-16T13:43:45;101316.44;;;20.08;68.79
29505;BME280;16452;54.174;12.092;2022-10-16T13:46:18;101310.28;;;20.08;68.91
29505;BME280;16452;54.174;12.092;2022-10-16T13:48:45;101322.56;;;20.09;68.64
29505;BME280;16452;54.174;12.092;2022-10-16T13:51:21;101326.84;;;20.10;69.19
29505;BME280;16452;54.174;12.092;2022-10-16T13:53:52;101341.78;;;20.11;69.17
29505;BME280;16452;54.174;12.092;2022-10-16T13:56:22;101340.94;;;20.10;69.66
29505;BME280;16452;54.174;12.092;2022-10-16T13:59:07;101346.00;;;20.14;70.19
29505;BME280;16452;54.174;12.092;2022-10-16T14:01:47;101345.25;;;20.12;69.81
29505;BME280;16452;54.174;12.092;2022-10-16T14:04:14;101346.06;;;20.23;69.88
29505;BME280;16452;54.174;12.092;2022-10-16T14:06:45;101354.38;;;20.19;69.22
29505;BME280;16452;54.174;12.092;2022-10-16T14:09:28;101352.19;;;20.24;69.34
29505;BME280;16452;54.174;12.092;2022-10-16T14:12:06;101356.75;;;20.22;68.76
29505;BME280;16452;54.174;12.092;2022-10-16T14:14:48;101364.06;;;20.08;70.00
29505;BME280;16452;54.174;12.092;2022-10-16T14:19:56;101366.59;;;19.99;70.20
29505;BME280;16452;54.174;12.092;2022-10-16T14:22:41;101368.63;;;20.06;70.36
29505;BME280;16452;54.174;12.092;2022-10-16T14:27:45;101389.44;;;20.00;70.16
29505;BME280;16452;54.174;12.092;2022-10-16T14:30:20;101391.16;;;19.90;70.33
29505;BME280;16452;54.174;12.092;2022-10-16T14:33:18;101393.34;;;19.85;71.53
29505;BME280;16452;54.174;12.092;2022-10-16T14:35:45;101398.16;;;19.80;72.04
29505;BME280;16452;54.174;12.092;2022-10-16T14:38:19;101407.44;;;19.74;74.13
29505;BME280;16452;54.174;12.092;2022-10-16T14:40:48;101405.41;;;19.66;75.00
29505;BME280;16452;54.174;12.092;2022-10-16T14:43:35;101414.16;;;19.78;74.75
29505;BME280;16452;54.174;12.092;2022-10-16T14:46:13;101408.47;;;19.83;73.02
29505;BME280;16452;54.174;12.092;2022-10-16T14:48:48;101404.84;;;19.95;72.86